Terminal Aerodrome Forecast
Issued by NWS

Home | Current Version | Previous Version | Text Only | Print | Product List | Glossary On
Versions: 1 2 3 4 5 6 7 8 9 10 11 12 13 14 15 16 17 18
000
FTUS45 KRIW 232300
TAFCPR
TAF
KCPR 232320Z 2400/2424 VRB11KT P6SM VCTS SCT025CB BKN040
     FM240200 09011KT 5SM -SHRA BR SCT008 OVC020
     FM240800 05010KT 4SM -SHRA OVC008
     FM241700 06012KT 6SM -SHRA VCTS SCT015CB OVC030=

USA.gov is the U.S. government's official web portal to all federal, state and local government web resources and services.